createdAt,value
2019-06-01T00:00:50.579Z,67.10
2019-06-01T00:03:22.438Z,67.20
2019-06-01T00:05:53.303Z,67.20
2019-06-01T00:08:23.768Z,67.40
2019-06-01T00:10:54.371Z,67.50
2019-06-01T00:13:25.806Z,67.60
2019-06-01T00:15:56.295Z,67.80
2019-06-01T00:18:26.568Z,67.60
2019-06-01T00:20:56.874Z,67.80
2019-06-01T00:23:27.263Z,67.90
2019-06-01T00:25:57.543Z,68.00
2019-06-01T00:28:27.820Z,68.00
2019-06-01T00:30:58.102Z,68.10
2019-06-01T00:33:28.365Z,68.20
2019-06-01T00:35:59.059Z,68.10
2019-06-01T00:38:29.056Z,68.00
2019-06-01T00:40:59.290Z,67.90
2019-06-01T00:43:29.531Z,67.80
2019-06-01T00:45:59.818Z,67.70
2019-06-01T00:48:30.025Z,67.60
2019-06-01T00:51:00.308Z,67.50
2019-06-01T00:53:30.551Z,67.40
2019-06-01T00:56:00.795Z,67.50
2019-06-01T00:58:30.983Z,67.80
2019-06-01T01:01:01.591Z,67.70
2019-06-01T01:03:33.427Z,67.60
2019-06-01T01:06:03.636Z,67.70
2019-06-01T01:08:34.350Z,67.70
2019-06-01T01:11:04.643Z,67.70
2019-06-01T01:13:35.094Z,67.60
2019-06-01T01:16:05.384Z,67.50
2019-06-01T01:18:35.587Z,67.90
2019-06-01T01:21:05.806Z,68.40
2019-06-01T01:23:36.071Z,67.90
2019-06-01T01:26:06.591Z,68.10
2019-06-01T01:28:36.888Z,68.40
2019-06-01T01:31:13.802Z,68.70
2019-06-01T01:33:39.008Z,68.90
2019-06-01T01:36:09.196Z,68.90
2019-06-01T01:38:39.491Z,69.70
2019-06-01T01:41:10.049Z,69.60
2019-06-01T01:43:40.322Z,69.90
2019-06-01T01:46:10.542Z,69.70
2019-06-01T01:48:40.770Z,69.90
2019-06-01T01:51:10.957Z,69.90
2019-06-01T01:53:41.172Z,69.70
2019-06-01T01:56:11.365Z,70.50
2019-06-01T01:58:41.593Z,69.40
2019-06-01T02:01:22.416Z,69.10
2019-06-01T02:03:43.785Z,69.40
2019-06-01T02:06:14.044Z,69.10
2019-06-01T02:08:44.336Z,68.70
2019-06-01T02:11:14.632Z,68.40
2019-06-01T02:13:44.848Z,69.60
2019-06-01T02:16:15.067Z,69.40
2019-06-01T02:18:45.258Z,69.60
2019-06-01T02:21:15.476Z,68.90
2019-06-01T02:23:45.663Z,69.30
2019-06-01T02:26:16.358Z,69.50
2019-06-01T02:28:46.623Z,69.60
2019-06-01T02:31:16.854Z,70.10
2019-06-01T02:33:47.051Z,71.30
2019-06-01T02:36:17.506Z,71.40
2019-06-01T02:38:48.749Z,71.40
2019-06-01T02:41:19.027Z,71.80
2019-06-01T02:43:49.685Z,72.30
2019-06-01T02:46:20.241Z,72.20
2019-06-01T02:48:50.677Z,72.40
2019-06-01T02:51:22.083Z,72.60
2019-06-01T02:53:52.343Z,72.00
2019-06-01T02:56:22.551Z,72.50
2019-06-01T02:58:52.768Z,72.70
2019-06-01T03:01:37.247Z,72.70
2019-06-01T03:04:08.651Z,72.50
2019-06-01T03:06:40.144Z,72.30
2019-06-01T03:09:10.251Z,72.30
2019-06-01T03:11:41.191Z,72.10
2019-06-01T03:14:11.651Z,72.10
2019-06-01T03:16:42.520Z,72.00
2019-06-01T03:19:14.271Z,72.20
2019-06-01T03:21:46.655Z,72.30
2019-06-01T03:24:17.345Z,72.10
2019-06-01T03:26:47.596Z,71.90
2019-06-01T03:29:19.195Z,71.70
2019-06-01T03:31:49.519Z,71.70
2019-06-01T03:34:20.084Z,71.70
2019-06-01T03:36:50.324Z,71.70
2019-06-01T03:39:20.772Z,71.60
2019-06-01T03:41:51.003Z,71.80
2019-06-01T03:44:21.229Z,71.50
2019-06-01T03:46:51.523Z,71.50
2019-06-01T03:49:21.735Z,71.80
2019-06-01T03:51:53.342Z,71.90
2019-06-01T03:54:23.577Z,72.20
2019-06-01T03:56:53.899Z,72.30
2019-06-01T03:59:24.179Z,72.20
2019-06-01T04:01:54.380Z,72.30
2019-06-01T04:04:24.599Z,72.30
2019-06-01T04:06:54.775Z,72.10
2019-06-01T04:09:25.450Z,71.70
2019-06-01T04:11:55.657Z,71.20
2019-06-01T04:14:25.866Z,71.30
2019-06-01T04:16:56.068Z,71.40
2019-06-01T04:19:27.242Z,71.60
2019-06-01T04:21:57.435Z,71.30
2019-06-01T04:24:27.653Z,71.10
2019-06-01T04:26:58.367Z,70.10
2019-06-01T04:29:28.407Z,69.10
2019-06-01T04:31:58.743Z,68.60
2019-06-01T04:34:29.044Z,67.60
2019-06-01T04:36:59.268Z,65.80
2019-06-01T04:39:29.555Z,63.50
2019-06-01T04:42:00.478Z,60.20
2019-06-01T04:44:30.696Z,58.10
2019-06-01T04:47:01.286Z,55.50
2019-06-01T04:49:31.547Z,53.50
2019-06-01T04:52:01.879Z,51.80
2019-06-01T04:54:32.096Z,49.90
2019-06-01T04:57:02.311Z,47.90
2019-06-01T04:59:32.518Z,45.90
2019-06-01T05:02:02.750Z,43.80
2019-06-01T05:04:32.944Z,42.20
2019-06-01T05:07:03.165Z,40.70
2019-06-01T05:09:33.431Z,39.80
2019-06-01T05:12:03.631Z,38.70
2019-06-01T05:14:33.933Z,37.70
2019-06-01T05:17:04.131Z,37.90
2019-06-01T05:19:34.342Z,36.90
2019-06-01T05:22:04.526Z,36.00
2019-06-01T05:24:34.737Z,35.10
2019-06-01T05:27:05.012Z,34.50
2019-06-01T05:29:35.215Z,33.90
2019-06-01T05:32:05.460Z,34.10
2019-06-01T05:34:35.676Z,35.30
2019-06-01T05:37:05.878Z,35.70
2019-06-01T05:39:36.087Z,36.00
2019-06-01T05:42:06.391Z,36.20
2019-06-01T05:44:36.924Z,36.60
2019-06-01T05:47:07.132Z,36.20
2019-06-01T05:49:37.346Z,35.90
2019-06-01T05:52:07.635Z,35.70
2019-06-01T05:54:37.953Z,36.60
2019-06-01T05:57:08.154Z,38.30
2019-06-01T05:59:38.433Z,39.50
2019-06-01T06:02:08.789Z,40.00
2019-06-01T06:04:39.086Z,40.60
2019-06-01T06:07:10.578Z,40.30
2019-06-01T06:09:41.105Z,39.90
2019-06-01T06:12:11.531Z,40.30
2019-06-01T06:14:41.743Z,38.90
2019-06-01T06:17:14.569Z,38.20
2019-06-01T06:19:45.552Z,37.70
2019-06-01T06:22:16.190Z,36.70
2019-06-01T06:24:47.054Z,35.30
2019-06-01T06:27:18.522Z,34.60
2019-06-01T06:29:48.981Z,33.80
2019-06-01T06:32:19.309Z,32.20
2019-06-01T06:34:49.676Z,31.50
2019-06-01T06:37:19.868Z,31.70
2019-06-01T06:39:50.175Z,31.30
2019-06-01T06:42:20.446Z,31.30
2019-06-01T06:44:50.747Z,30.00
2019-06-01T06:47:21.000Z,29.70
2019-06-01T06:49:51.609Z,29.80
2019-06-01T06:52:21.963Z,30.00
2019-06-01T06:54:52.341Z,28.30
2019-06-01T06:57:22.619Z,27.30
2019-06-01T06:59:52.818Z,27.10
2019-06-01T07:02:23.120Z,26.40
2019-06-01T07:04:53.381Z,26.10
2019-06-01T07:07:23.808Z,25.30
2019-06-01T07:09:54.027Z,25.40
2019-06-01T07:12:25.387Z,25.80
2019-06-01T07:14:55.986Z,25.70
2019-06-01T07:17:26.264Z,25.30
2019-06-01T07:19:56.544Z,25.60
2019-06-01T07:22:27.818Z,26.30
2019-06-01T07:24:58.514Z,25.40
2019-06-01T07:27:28.959Z,25.50
2019-06-01T07:29:59.316Z,24.60
2019-06-01T07:32:29.602Z,25.00
2019-06-01T07:35:01.230Z,25.20
2019-06-01T07:37:32.733Z,24.20
2019-06-01T07:40:04.379Z,23.60
2019-06-01T07:42:34.575Z,23.40
2019-06-01T07:45:05.712Z,23.60
2019-06-01T07:47:35.912Z,24.10
2019-06-01T07:50:06.243Z,24.50
2019-06-01T07:52:36.515Z,24.50
2019-06-01T07:55:07.264Z,25.00
2019-06-01T07:57:37.475Z,24.60
2019-06-01T08:00:08.891Z,24.80
2019-06-01T08:02:39.138Z,24.60
2019-06-01T08:05:09.323Z,25.10
2019-06-01T08:07:39.531Z,25.00
2019-06-01T08:10:09.805Z,25.10
2019-06-01T08:12:40.083Z,25.50
2019-06-01T08:15:15.206Z,24.60
2019-06-01T08:17:45.485Z,25.40
2019-06-01T08:20:15.669Z,25.30
2019-06-01T08:22:45.893Z,24.60
2019-06-01T08:25:16.074Z,24.50
2019-06-01T08:27:46.280Z,25.30
2019-06-01T08:30:16.463Z,25.10
2019-06-01T08:32:46.936Z,25.10
2019-06-01T08:35:17.131Z,26.00
2019-06-01T08:37:47.334Z,26.50
2019-06-01T08:40:17.514Z,26.30
2019-06-01T08:42:47.789Z,26.90
2019-06-01T08:45:18.056Z,28.10
2019-06-01T08:47:48.327Z,28.50
2019-06-01T08:50:18.518Z,29.50
2019-06-01T08:52:48.867Z,30.90
2019-06-01T08:55:19.123Z,32.00
2019-06-01T08:57:49.364Z,32.30
2019-06-01T09:00:19.554Z,33.40
2019-06-01T09:02:49.773Z,33.50
2019-06-01T09:05:24.277Z,34.90
2019-06-01T09:07:51.952Z,35.10
2019-06-01T09:10:22.147Z,34.60
2019-06-01T09:12:52.337Z,34.50
2019-06-01T09:15:22.629Z,35.80
2019-06-01T09:17:52.890Z,37.00
2019-06-01T09:20:23.192Z,36.20
2019-06-01T09:22:53.436Z,36.20
2019-06-01T09:25:23.649Z,36.90
2019-06-01T09:27:53.828Z,38.30
2019-06-01T09:30:24.045Z,37.00
2019-06-01T09:32:54.294Z,37.00
2019-06-01T09:35:43.103Z,37.00
2019-06-01T09:37:57.525Z,37.60
2019-06-01T09:40:29.993Z,36.20
2019-06-01T09:42:59.691Z,35.00
2019-06-01T09:45:29.963Z,33.30
2019-06-01T09:48:00.167Z,33.00
2019-06-01T09:50:31.328Z,34.00
2019-06-01T09:53:01.835Z,34.00
2019-06-01T09:55:32.654Z,35.00
2019-06-01T09:58:03.546Z,34.70
2019-06-01T10:00:47.577Z,32.80
2019-06-01T10:03:17.833Z,32.90
2019-06-01T10:06:01.460Z,32.20
2019-06-01T10:08:19.924Z,32.70
2019-06-01T10:10:50.416Z,32.40
2019-06-01T10:13:20.591Z,32.60
2019-06-01T10:15:50.819Z,30.30
2019-06-01T10:18:21.070Z,31.90
2019-06-01T10:20:51.268Z,31.20
2019-06-01T10:23:21.529Z,31.60
2019-06-01T10:25:51.871Z,31.60
2019-06-01T10:28:23.084Z,30.30
2019-06-01T10:30:53.437Z,30.80
2019-06-01T10:33:23.706Z,30.30
2019-06-01T10:35:53.984Z,29.90
2019-06-01T10:38:24.180Z,29.40
2019-06-01T10:40:54.541Z,30.10
2019-06-01T10:43:24.786Z,31.00
2019-06-01T10:45:54.973Z,29.20
2019-06-01T10:48:25.150Z,31.70
2019-06-01T10:50:55.352Z,29.50
2019-06-01T10:53:25.533Z,30.80
2019-06-01T10:55:55.736Z,30.40
2019-06-01T10:58:25.911Z,30.90
2019-06-01T11:00:56.287Z,30.40
2019-06-01T11:03:26.533Z,30.00
2019-06-01T11:05:56.861Z,30.00
2019-06-01T11:08:27.034Z,29.90
2019-06-01T11:10:57.250Z,29.80
2019-06-01T11:13:27.511Z,29.70
2019-06-01T11:15:57.916Z,30.40
2019-06-01T11:18:28.112Z,30.70
2019-06-01T11:20:58.326Z,31.10
2019-06-01T11:23:28.585Z,29.30
2019-06-01T11:25:58.788Z,29.80
2019-06-01T11:28:28.968Z,29.90
2019-06-01T11:30:59.188Z,30.30
2019-06-01T11:33:29.432Z,30.80
2019-06-01T11:35:59.652Z,30.40
2019-06-01T11:38:29.843Z,29.30
2019-06-01T11:41:00.086Z,30.30
2019-06-01T11:43:30.263Z,30.00
2019-06-01T11:46:00.474Z,29.40
2019-06-01T11:48:30.729Z,29.60
2019-06-01T11:51:00.932Z,28.60
2019-06-01T11:53:31.116Z,28.60
2019-06-01T11:56:01.354Z,28.90
2019-06-01T11:58:31.543Z,28.10
2019-06-01T12:01:01.812Z,29.00
2019-06-01T12:03:33.151Z,30.20
2019-06-01T12:06:03.356Z,29.40
2019-06-01T12:08:34.285Z,29.40
2019-06-01T12:11:05.095Z,28.60
2019-06-01T12:13:36.022Z,28.60
2019-06-01T12:16:06.454Z,29.90
2019-06-01T12:18:36.639Z,30.70
2019-06-01T12:21:07.720Z,29.70
2019-06-01T12:23:38.981Z,32.30
2019-06-01T12:26:09.505Z,30.60
2019-06-01T12:28:39.832Z,32.70
2019-06-01T12:31:10.040Z,32.30
2019-06-01T12:33:40.219Z,32.40
2019-06-01T12:36:10.443Z,30.60
2019-06-01T12:38:51.651Z,31.40
2019-06-01T12:41:22.590Z,30.60
2019-06-01T12:44:09.786Z,30.90
2019-06-01T12:46:40.072Z,29.40
2019-06-01T12:49:11.380Z,29.70
2019-06-01T12:51:42.564Z,32.50
2019-06-01T12:54:12.949Z,33.40
2019-06-01T12:56:44.633Z,33.80
2019-06-01T12:59:15.110Z,33.90
2019-06-01T13:01:45.326Z,32.90
2019-06-01T13:04:15.549Z,33.10
2019-06-01T13:06:49.436Z,33.40
2019-06-01T13:09:17.721Z,33.00
2019-06-01T13:11:49.362Z,32.80
2019-06-01T13:14:19.778Z,31.70
2019-06-01T13:17:03.204Z,33.50
2019-06-01T13:19:21.887Z,33.10
2019-06-01T13:21:52.124Z,29.60
2019-06-01T13:24:22.364Z,33.00
2019-06-01T13:26:52.644Z,33.40
2019-06-01T13:29:22.824Z,34.20
2019-06-01T13:31:53.034Z,33.30
2019-06-01T13:34:23.274Z,33.70
2019-06-01T13:36:53.497Z,32.20
2019-06-01T13:39:23.682Z,33.20
2019-06-01T13:41:53.882Z,32.70
2019-06-01T13:44:24.082Z,33.00
2019-06-01T13:46:54.319Z,32.60
2019-06-01T13:49:25.054Z,32.20
2019-06-01T13:51:56.407Z,32.10
2019-06-01T13:54:26.618Z,32.60
2019-06-01T13:56:56.851Z,32.30
2019-06-01T13:59:27.495Z,32.80
2019-06-01T14:01:57.781Z,32.60
2019-06-01T14:04:27.983Z,33.60
2019-06-01T14:06:58.212Z,30.50
2019-06-01T14:09:28.419Z,33.00
2019-06-01T14:11:58.602Z,31.80
2019-06-01T14:14:28.872Z,32.00
2019-06-01T14:16:59.127Z,32.20
2019-06-01T14:19:29.389Z,31.90
2019-06-01T14:21:59.595Z,34.30
2019-06-01T14:24:30.779Z,32.40
2019-06-01T14:27:00.959Z,32.50
2019-06-01T14:29:31.179Z,32.00
2019-06-01T14:32:01.367Z,32.60
2019-06-01T14:34:31.680Z,32.80
2019-06-01T14:37:01.902Z,33.10
2019-06-01T14:39:32.124Z,33.30
2019-06-01T14:42:02.838Z,32.00
2019-06-01T14:44:33.109Z,31.70
2019-06-01T14:47:05.997Z,31.90
2019-06-01T14:49:35.626Z,32.80
2019-06-01T14:52:05.823Z,32.10
2019-06-01T14:54:36.031Z,31.50
2019-06-01T14:57:06.206Z,32.10
2019-06-01T14:59:36.401Z,31.90
2019-06-01T15:02:06.580Z,30.80
2019-06-01T15:04:36.772Z,31.50
2019-06-01T15:07:06.967Z,32.70
2019-06-01T15:09:37.173Z,32.20
2019-06-01T15:12:07.358Z,32.20
2019-06-01T15:14:37.638Z,31.40
2019-06-01T15:17:07.993Z,30.90
2019-06-01T15:19:38.255Z,31.90
2019-06-01T15:22:08.439Z,31.00
2019-06-01T15:24:39.613Z,31.60
2019-06-01T15:27:56.839Z,30.60
2019-06-01T15:30:19.893Z,30.80
2019-06-01T15:32:50.178Z,31.10
2019-06-01T15:35:20.425Z,31.60
2019-06-01T15:37:51.287Z,32.10
2019-06-01T15:40:22.598Z,31.40
2019-06-01T15:42:53.627Z,30.90
2019-06-01T15:45:23.991Z,31.50
2019-06-01T15:47:55.423Z,31.70
2019-06-01T15:50:25.751Z,31.60
2019-06-01T15:52:57.019Z,30.40
2019-06-01T15:55:27.534Z,30.90
2019-06-01T15:57:58.493Z,31.20
2019-06-01T16:00:28.871Z,31.20
2019-06-01T16:02:59.183Z,30.40
2019-06-01T16:05:29.514Z,30.40
2019-06-01T16:07:59.785Z,30.80
2019-06-01T16:10:30.294Z,30.60
2019-06-01T16:13:01.628Z,29.90
2019-06-01T16:15:33.183Z,30.40
2019-06-01T16:18:04.248Z,31.20
2019-06-01T16:20:34.664Z,32.30
2019-06-01T16:23:05.282Z,32.10
2019-06-01T16:25:36.593Z,31.50
2019-06-01T16:28:06.866Z,31.30
2019-06-01T16:30:37.081Z,31.70
2019-06-01T16:33:07.281Z,31.80
2019-06-01T16:35:37.488Z,31.20
2019-06-01T16:38:07.683Z,31.30
2019-06-01T16:40:38.022Z,31.40
2019-06-01T16:43:08.231Z,31.30
2019-06-01T16:45:38.409Z,32.40
2019-06-01T16:48:08.627Z,32.10
2019-06-01T16:50:38.831Z,31.40
2019-06-01T16:53:09.014Z,32.60
2019-06-01T16:55:40.846Z,33.00
2019-06-01T16:58:11.116Z,33.50
2019-06-01T17:00:41.316Z,33.50
2019-06-01T17:03:11.570Z,33.90
2019-06-01T17:05:41.889Z,33.80
2019-06-01T17:08:13.353Z,34.30
2019-06-01T17:10:43.647Z,35.00
2019-06-01T17:13:13.822Z,35.30
2019-06-01T17:15:44.017Z,35.50
2019-06-01T17:18:14.188Z,35.40
2019-06-01T17:20:49.229Z,36.30
2019-06-01T17:23:28.544Z,36.60
2019-06-01T17:25:51.450Z,37.00
2019-06-01T17:28:21.724Z,36.90
2019-06-01T17:30:52.101Z,37.60
2019-06-01T17:33:22.336Z,36.90
2019-06-01T17:35:52.558Z,37.70
2019-06-01T17:38:22.749Z,37.10
2019-06-01T17:40:53.021Z,37.10
2019-06-01T17:43:23.269Z,37.40
2019-06-01T17:45:53.507Z,37.20
2019-06-01T17:48:26.852Z,37.20
2019-06-01T17:50:55.665Z,36.80
2019-06-01T17:53:25.861Z,36.90
2019-06-01T17:55:56.069Z,37.70
2019-06-01T17:58:26.256Z,37.70
2019-06-01T18:00:56.476Z,37.60
2019-06-01T18:03:26.659Z,37.80
2019-06-01T18:05:57.215Z,38.00
2019-06-01T18:08:27.408Z,38.60
2019-06-01T18:10:57.673Z,38.60
2019-06-01T18:13:27.842Z,39.10
2019-06-01T18:15:58.043Z,39.80
2019-06-01T18:18:28.228Z,40.70
2019-06-01T18:20:58.448Z,40.20
2019-06-01T18:23:28.633Z,40.20
2019-06-01T18:25:58.980Z,40.30
2019-06-01T18:28:29.166Z,39.90
2019-06-01T18:30:59.377Z,40.90
2019-06-01T18:33:29.572Z,40.80
2019-06-01T18:35:59.775Z,40.80
2019-06-01T18:38:30.013Z,40.30
2019-06-01T18:41:09.338Z,40.50
2019-06-01T18:43:32.425Z,40.30
2019-06-01T18:46:03.686Z,40.60
2019-06-01T18:48:34.129Z,40.60
2019-06-01T18:51:05.908Z,40.70
2019-06-01T18:53:37.444Z,41.20
2019-06-01T18:56:08.315Z,41.30
2019-06-01T18:58:38.783Z,40.80
2019-06-01T19:01:10.563Z,41.30
2019-06-01T19:03:41.766Z,41.70
2019-06-01T19:06:12.136Z,42.90
2019-06-01T19:08:42.455Z,43.40
2019-06-01T19:11:28.355Z,44.30
2019-06-01T19:13:44.661Z,44.80
2019-06-01T19:16:16.150Z,45.70
2019-06-01T19:18:46.962Z,45.90
2019-06-01T19:21:17.221Z,46.40
2019-06-01T19:23:47.543Z,47.10
2019-06-01T19:26:18.622Z,47.20
2019-06-01T19:28:49.024Z,47.70
2019-06-01T19:31:20.001Z,48.00
2019-06-01T19:33:50.256Z,48.50
2019-06-01T19:36:21.279Z,48.90
2019-06-01T19:38:56.928Z,48.80
2019-06-01T19:41:23.885Z,49.20
2019-06-01T19:43:54.472Z,49.50
2019-06-01T19:46:24.734Z,50.20
2019-06-01T19:48:54.951Z,50.60
2019-06-01T19:51:25.230Z,50.80
2019-06-01T19:53:55.420Z,50.30
2019-06-01T19:56:25.686Z,51.20
2019-06-01T19:58:55.883Z,51.10
2019-06-01T20:01:26.383Z,51.50
2019-06-01T20:03:59.520Z,51.70
2019-06-01T20:06:29.995Z,51.50
2019-06-01T20:09:01.327Z,51.40
2019-06-01T20:11:33.342Z,51.80
2019-06-01T20:14:03.648Z,51.80
2019-06-01T20:16:33.972Z,51.90
2019-06-01T20:19:04.234Z,52.10
2019-06-01T20:21:34.591Z,52.50
2019-06-01T20:24:04.884Z,52.60
2019-06-01T20:26:40.749Z,52.50
2019-06-01T20:29:07.191Z,53.10
2019-06-01T20:31:37.471Z,53.00
2019-06-01T20:34:07.929Z,53.00
2019-06-01T20:36:39.312Z,53.10
2019-06-01T20:39:10.005Z,53.10
2019-06-01T20:41:40.441Z,53.30
2019-06-01T20:44:12.500Z,53.50
2019-06-01T20:46:43.102Z,53.70
2019-06-01T20:49:14.407Z,53.80
2019-06-01T20:51:44.873Z,54.10
2019-06-01T20:54:15.064Z,54.20
2019-06-01T20:56:45.416Z,54.30
2019-06-01T20:59:18.710Z,54.40
2019-06-01T21:01:49.296Z,54.40
2019-06-01T21:04:20.266Z,54.50
2019-06-01T21:06:51.001Z,54.80
2019-06-01T21:09:22.038Z,54.70
2019-06-01T21:11:51.838Z,55.30
2019-06-01T21:14:22.264Z,55.40
2019-06-01T21:16:52.495Z,55.60
2019-06-01T21:19:22.718Z,55.80
2019-06-01T21:21:53.040Z,55.50
2019-06-01T21:24:23.257Z,55.40
2019-06-01T21:26:53.722Z,55.50
2019-06-01T21:29:25.155Z,56.00
2019-06-01T21:31:55.672Z,56.20
2019-06-01T21:34:26.339Z,56.30
2019-06-01T21:36:56.530Z,56.50
2019-06-01T21:39:26.783Z,56.60
2019-06-01T21:41:56.980Z,56.70
2019-06-01T21:44:27.203Z,56.80
2019-06-01T21:46:57.422Z,57.00
2019-06-01T21:49:27.777Z,57.20
2019-06-01T21:51:58.062Z,57.40
2019-06-01T21:54:28.251Z,57.60
2019-06-01T21:56:58.529Z,57.60
2019-06-01T21:59:28.867Z,57.70
2019-06-01T22:01:59.110Z,57.70
2019-06-01T22:04:29.379Z,57.70
2019-06-01T22:06:59.587Z,57.30
2019-06-01T22:09:29.785Z,57.50
2019-06-01T22:11:59.997Z,57.40
2019-06-01T22:14:30.224Z,57.50
2019-06-01T22:17:00.472Z,57.20
2019-06-01T22:19:30.880Z,57.00
2019-06-01T22:22:01.120Z,57.10
2019-06-01T22:24:31.397Z,56.90
2019-06-01T22:27:01.632Z,57.30
2019-06-01T22:29:31.840Z,56.80
2019-06-01T22:32:02.040Z,56.40
2019-06-01T22:34:32.216Z,55.40
2019-06-01T22:37:02.424Z,54.70
2019-06-01T22:39:32.607Z,55.30
2019-06-01T22:42:02.888Z,54.30
2019-06-01T22:44:33.141Z,54.20
2019-06-01T22:47:03.371Z,53.40
2019-06-01T22:49:33.714Z,53.50
2019-06-01T22:52:03.917Z,53.80
2019-06-01T22:54:34.172Z,53.80
2019-06-01T22:57:04.450Z,54.30
2019-06-01T22:59:34.633Z,54.50
2019-06-01T23:02:04.850Z,54.40
2019-06-01T23:04:35.103Z,54.40
2019-06-01T23:07:05.286Z,54.40
2019-06-01T23:09:35.472Z,54.20
2019-06-01T23:12:05.679Z,54.40
2019-06-01T23:14:36.321Z,54.30
2019-06-01T23:17:06.551Z,54.40
2019-06-01T23:19:36.741Z,54.20
2019-06-01T23:22:06.945Z,54.40
2019-06-01T23:24:37.150Z,54.70
2019-06-01T23:27:07.435Z,55.40
2019-06-01T23:29:37.692Z,56.30
2019-06-01T23:32:07.919Z,56.90
2019-06-01T23:34:38.258Z,57.10
2019-06-01T23:37:08.481Z,57.40
2019-06-01T23:39:38.687Z,58.20
2019-06-01T23:42:08.923Z,58.10
2019-06-01T23:44:39.121Z,58.20
2019-06-01T23:47:09.328Z,58.20
2019-06-01T23:49:39.659Z,58.10
2019-06-01T23:52:09.872Z,58.40
2019-06-01T23:54:40.138Z,58.50
2019-06-01T23:57:10.335Z,59.30
2019-06-01T23:59:40.519Z,59.10
